Morton, MS (39117)

5:21 PM CDT on July 06, 2015 (GMT -0500)
Leesburg | | Change Station
CLOSE
Current Station
Personal Weather Station
Location: Morton, MS
Elevation: 404 ft
Nearby Weather Stations

Elev 404 ft 32.41 °N, 89.75 °W | Updated 10 seconds ago

Partly Cloudy
Partly Cloudy
87.6 °F
Feels Like 99 °F
N
9.0
Wind Variable Wind from SE
Gusts 11.0 mph

Today
High -- | Low -- °F
--% Chance of Precip.
Yesterday
High -- | Low -- °F
Precip. -- in
5:57 AM 8:09 PM
Waning Gibbous, 71% visible
Pressure 30.07 in
Visibility 10.0 miles
Clouds Mostly Cloudy 4200 ft
Heat Index 99 °F
Dew Point 77 °F
Humidity 70%
Rainfall 0.05 in
Snow Depth Not available.
UV 3 out of 12
Pollen 3.40 out of 12
Air Quality Not available.
Flu Activity Not available.
METAR KJAN 062154Z 19008KT 10SM BKN042 31/23 A3008 RMK AO2 SLP182 T03110228

More Conditions Fewer Conditions

Pressure 30.07 in
Visibility 10.0 miles
Clouds Mostly Cloudy 4200 ft
Heat Index 99 °F
Dew Point 77 °F
Humidity 70%
Rainfall 0.05 in
Snow Depth Not available.
UV 3 out of 12
Pollen 3.40 out of 12
Air Quality Not available.
Flu Activity Not available.
METAR KJAN 062154Z 19008KT 10SM BKN042 31/23 A3008 RMK AO2 SLP182 T03110228

More Conditions Fewer Conditions

10-Day Weather Forecast

×

Almanac

Astronomy

Jul. 06, 2015 Rise Set
Actual Time
Civil Twilight
Nautical Twilight
Astronomical Twilight
Moon
Length of Visible Light
Length of Day
Tomorrow will be .
, % of the Moon is Illuminated

Today's Extremes

State Highs State Lows

Community

WunderPhotos

Upload Photos

1,835,664 photos uploaded!

WunderBlogs® & News

Nearby

Air Quality

  Air Quality AQ Index Pollutant
Not available.

Snow Depth

Station Depth Elevation

Earthquake Activity

City Distance Mag. Time & Date
Minimum magnitude displayed is 2.5.

Coastal Water Temperatures

Place Temperature

Stations

Nearby Weather Stations

Station Location Temp. Windchill Dew Point Humidity Wind Precip. Elev Updated Type